sensor_id;sensor_type;location;lat;lon;timestamp;temperature;humidity
17639;DHT22;8938;53.546;9.954;2024-01-27T00:01:35;9.70;99.90
17639;DHT22;8938;53.546;9.954;2024-01-27T00:04:01;9.80;99.90
17639;DHT22;8938;53.546;9.954;2024-01-27T00:06:27;9.70;99.90
17639;DHT22;8938;53.546;9.954;2024-01-27T00:08:52;9.70;99.90
17639;DHT22;8938;53.546;9.954;2024-01-27T00:11:18;9.80;99.90
17639;DHT22;8938;53.546;9.954;2024-01-27T00:13:45;9.80;99.90
17639;DHT22;8938;53.546;9.954;2024-01-27T00:16:11;9.70;99.90
17639;DHT22;8938;53.546;9.954;2024-01-27T00:18:36;9.80;99.90
17639;DHT22;8938;53.546;9.954;2024-01-27T00:21:04;9.80;99.90
17639;DHT22;8938;53.546;9.954;2024-01-27T00:23:29;9.80;99.90
17639;DHT22;8938;53.546;9.954;2024-01-27T00:25:55;9.80;99.90
17639;DHT22;8938;53.546;9.954;2024-01-27T00:28:21;9.80;99.90
17639;DHT22;8938;53.546;9.954;2024-01-27T00:30:46;9.80;99.90
17639;DHT22;8938;53.546;9.954;2024-01-27T00:33:12;9.80;99.90
17639;DHT22;8938;53.546;9.954;2024-01-27T00:35:37;9.80;99.90
17639;DHT22;8938;53.546;9.954;2024-01-27T00:38:03;9.90;99.90
17639;DHT22;8938;53.546;9.954;2024-01-27T00:40:29;9.90;99.90
17639;DHT22;8938;53.546;9.954;2024-01-27T00:42:54;9.90;99.90
17639;DHT22;8938;53.546;9.954;2024-01-27T00:45:20;9.80;99.90
17639;DHT22;8938;53.546;9.954;2024-01-27T00:47:51;9.80;99.90
17639;DHT22;8938;53.546;9.954;2024-01-27T00:50:16;9.90;99.90
17639;DHT22;8938;53.546;9.954;2024-01-27T00:52:42;9.90;99.90
17639;DHT22;8938;53.546;9.954;2024-01-27T00:55:08;9.90;99.90
17639;DHT22;8938;53.546;9.954;2024-01-27T00:57:36;9.90;99.90
17639;DHT22;8938;53.546;9.954;2024-01-27T01:00:02;10.00;99.90
17639;DHT22;8938;53.546;9.954;2024-01-27T01:02:28;9.90;99.90
17639;DHT22;8938;53.546;9.954;2024-01-27T01:04:54;9.90;99.90
17639;DHT22;8938;53.546;9.954;2024-01-27T01:07:19;9.90;99.90
17639;DHT22;8938;53.546;9.954;2024-01-27T01:09:45;10.00;99.90
17639;DHT22;8938;53.546;9.954;2024-01-27T01:12:11;9.80;99.90
17639;DHT22;8938;53.546;9.954;2024-01-27T01:14:36;9.80;99.90
17639;DHT22;8938;53.546;9.954;2024-01-27T01:17:02;9.80;99.90
17639;DHT22;8938;53.546;9.954;2024-01-27T01:19:28;9.80;99.90
17639;DHT22;8938;53.546;9.954;2024-01-27T01:21:54;9.80;99.90
17639;DHT22;8938;53.546;9.954;2024-01-27T01:24:19;9.70;99.90
17639;DHT22;8938;53.546;9.954;2024-01-27T01:26:45;9.70;99.90
17639;DHT22;8938;53.546;9.954;2024-01-27T01:29:10;9.80;99.90
17639;DHT22;8938;53.546;9.954;2024-01-27T01:31:36;9.80;99.90
17639;DHT22;8938;53.546;9.954;2024-01-27T01:34:01;9.80;99.90
17639;DHT22;8938;53.546;9.954;2024-01-27T01:36:27;9.80;99.90
17639;DHT22;8938;53.546;9.954;2024-01-27T01:38:52;9.70;99.90
17639;DHT22;8938;53.546;9.954;2024-01-27T01:41:18;9.70;99.90
17639;DHT22;8938;53.546;9.954;2024-01-27T01:43:43;9.80;99.90
17639;DHT22;8938;53.546;9.954;2024-01-27T01:46:09;9.80;99.90
17639;DHT22;8938;53.546;9.954;2024-01-27T01:48:34;9.80;99.90
17639;DHT22;8938;53.546;9.954;2024-01-27T01:51:00;9.80;99.90
17639;DHT22;8938;53.546;9.954;2024-01-27T01:53:26;9.90;99.90
17639;DHT22;8938;53.546;9.954;2024-01-27T01:55:52;9.90;99.90
17639;DHT22;8938;53.546;9.954;2024-01-27T01:58:18;9.80;99.90
17639;DHT22;8938;53.546;9.954;2024-01-27T02:00:44;9.70;99.90
17639;DHT22;8938;53.546;9.954;2024-01-27T02:03:13;9.80;99.90
17639;DHT22;8938;53.546;9.954;2024-01-27T02:05:39;9.80;99.90
17639;DHT22;8938;53.546;9.954;2024-01-27T02:08:05;9.80;99.90
17639;DHT22;8938;53.546;9.954;2024-01-27T02:10:31;9.80;99.90
17639;DHT22;8938;53.546;9.954;2024-01-27T02:13:03;9.90;99.90
17639;DHT22;8938;53.546;9.954;2024-01-27T02:15:30;9.90;99.90
17639;DHT22;8938;53.546;9.954;2024-01-27T02:17:56;10.00;99.90
17639;DHT22;8938;53.546;9.954;2024-01-27T02:20:22;10.00;99.90
17639;DHT22;8938;53.546;9.954;2024-01-27T02:22:47;10.00;99.90
17639;DHT22;8938;53.546;9.954;2024-01-27T02:25:13;10.00;99.90
17639;DHT22;8938;53.546;9.954;2024-01-27T02:27:38;10.10;99.90
17639;DHT22;8938;53.546;9.954;2024-01-27T02:30:04;10.00;99.90
17639;DHT22;8938;53.546;9.954;2024-01-27T02:32:30;10.00;99.90
17639;DHT22;8938;53.546;9.954;2024-01-27T02:34:55;10.10;99.90
17639;DHT22;8938;53.546;9.954;2024-01-27T02:37:21;10.20;99.90
17639;DHT22;8938;53.546;9.954;2024-01-27T02:39:47;10.10;99.90
17639;DHT22;8938;53.546;9.954;2024-01-27T02:42:12;10.10;99.90
17639;DHT22;8938;53.546;9.954;2024-01-27T02:44:38;10.10;99.90
17639;DHT22;8938;53.546;9.954;2024-01-27T02:47:03;10.00;99.90
17639;DHT22;8938;53.546;9.954;2024-01-27T02:49:29;10.20;99.90
17639;DHT22;8938;53.546;9.954;2024-01-27T02:51:54;10.10;99.90
17639;DHT22;8938;53.546;9.954;2024-01-27T02:54:20;10.10;99.90
17639;DHT22;8938;53.546;9.954;2024-01-27T02:56:45;10.00;99.90
17639;DHT22;8938;53.546;9.954;2024-01-27T02:59:11;10.00;99.90
17639;DHT22;8938;53.546;9.954;2024-01-27T03:01:37;10.00;99.90
17639;DHT22;8938;53.546;9.954;2024-01-27T03:04:03;10.10;99.90
17639;DHT22;8938;53.546;9.954;2024-01-27T03:06:29;10.10;99.90
17639;DHT22;8938;53.546;9.954;2024-01-27T03:08:54;10.00;99.90
17639;DHT22;8938;53.546;9.954;2024-01-27T03:11:20;10.00;99.90
17639;DHT22;8938;53.546;9.954;2024-01-27T03:13:46;10.00;99.90
17639;DHT22;8938;53.546;9.954;2024-01-27T03:16:12;9.80;99.90
17639;DHT22;8938;53.546;9.954;2024-01-27T03:18:38;9.70;99.90
17639;DHT22;8938;53.546;9.954;2024-01-27T03:21:06;9.70;99.90
17639;DHT22;8938;53.546;9.954;2024-01-27T03:23:31;9.70;99.90
17639;DHT22;8938;53.546;9.954;2024-01-27T03:25:57;9.90;99.90
17639;DHT22;8938;53.546;9.954;2024-01-27T03:28:22;9.70;99.90
17639;DHT22;8938;53.546;9.954;2024-01-27T03:30:48;9.70;99.90
17639;DHT22;8938;53.546;9.954;2024-01-27T03:33:13;9.80;99.90
17639;DHT22;8938;53.546;9.954;2024-01-27T03:35:42;9.70;99.90
17639;DHT22;8938;53.546;9.954;2024-01-27T03:38:07;9.70;99.90
17639;DHT22;8938;53.546;9.954;2024-01-27T03:40:33;9.80;99.90
17639;DHT22;8938;53.546;9.954;2024-01-27T03:42:58;9.80;99.90
17639;DHT22;8938;53.546;9.954;2024-01-27T03:45:24;9.70;99.90
17639;DHT22;8938;53.546;9.954;2024-01-27T03:47:49;9.80;99.90
17639;DHT22;8938;53.546;9.954;2024-01-27T03:50:15;9.70;99.90
17639;DHT22;8938;53.546;9.954;2024-01-27T03:52:41;9.70;99.90
17639;DHT22;8938;53.546;9.954;2024-01-27T03:55:07;9.70;99.90
17639;DHT22;8938;53.546;9.954;2024-01-27T03:57:32;9.70;99.90
17639;DHT22;8938;53.546;9.954;2024-01-27T03:59:58;9.60;99.90
17639;DHT22;8938;53.546;9.954;2024-01-27T04:02:23;9.60;99.90
17639;DHT22;8938;53.546;9.954;2024-01-27T04:04:49;9.60;99.90
17639;DHT22;8938;53.546;9.954;2024-01-27T04:07:14;9.60;99.90
17639;DHT22;8938;53.546;9.954;2024-01-27T04:09:40;9.60;99.90
17639;DHT22;8938;53.546;9.954;2024-01-27T04:12:06;9.50;99.90
17639;DHT22;8938;53.546;9.954;2024-01-27T04:14:31;9.50;99.90
17639;DHT22;8938;53.546;9.954;2024-01-27T04:16:57;9.40;99.90
17639;DHT22;8938;53.546;9.954;2024-01-27T04:19:22;9.40;99.90
17639;DHT22;8938;53.546;9.954;2024-01-27T04:21:48;9.40;99.90
17639;DHT22;8938;53.546;9.954;2024-01-27T04:24:13;9.30;99.90
17639;DHT22;8938;53.546;9.954;2024-01-27T04:26:39;9.40;99.90
17639;DHT22;8938;53.546;9.954;2024-01-27T04:29:04;9.30;99.90
17639;DHT22;8938;53.546;9.954;2024-01-27T04:31:30;9.30;99.90
17639;DHT22;8938;53.546;9.954;2024-01-27T04:33:58;9.20;99.90
17639;DHT22;8938;53.546;9.954;2024-01-27T04:36:27;9.20;99.90
17639;DHT22;8938;53.546;9.954;2024-01-27T04:38:54;9.20;99.90
17639;DHT22;8938;53.546;9.954;2024-01-27T04:41:19;9.20;99.90
17639;DHT22;8938;53.546;9.954;2024-01-27T04:43:45;9.10;99.90
17639;DHT22;8938;53.546;9.954;2024-01-27T04:46:10;9.10;99.90
17639;DHT22;8938;53.546;9.954;2024-01-27T04:48:36;9.10;99.90
17639;DHT22;8938;53.546;9.954;2024-01-27T04:51:01;9.10;99.90
17639;DHT22;8938;53.546;9.954;2024-01-27T04:53:27;9.10;99.90
17639;DHT22;8938;53.546;9.954;2024-01-27T04:55:52;9.20;99.90
17639;DHT22;8938;53.546;9.954;2024-01-27T04:58:18;9.20;99.90
17639;DHT22;8938;53.546;9.954;2024-01-27T05:00:43;9.10;99.90
17639;DHT22;8938;53.546;9.954;2024-01-27T05:03:09;9.00;99.90
17639;DHT22;8938;53.546;9.954;2024-01-27T05:05:41;9.00;99.90
17639;DHT22;8938;53.546;9.954;2024-01-27T05:08:07;9.00;99.90
17639;DHT22;8938;53.546;9.954;2024-01-27T05:10:32;9.00;99.90
17639;DHT22;8938;53.546;9.954;2024-01-27T05:12:58;9.10;99.90
17639;DHT22;8938;53.546;9.954;2024-01-27T05:15:24;9.00;99.90
17639;DHT22;8938;53.546;9.954;2024-01-27T05:17:50;9.00;99.90
17639;DHT22;8938;53.546;9.954;2024-01-27T05:20:16;8.90;99.90
17639;DHT22;8938;53.546;9.954;2024-01-27T05:22:42;8.90;99.90
17639;DHT22;8938;53.546;9.954;2024-01-27T05:25:08;8.90;99.90
17639;DHT22;8938;53.546;9.954;2024-01-27T05:27:33;8.90;99.90
17639;DHT22;8938;53.546;9.954;2024-01-27T05:29:59;8.90;99.90
17639;DHT22;8938;53.546;9.954;2024-01-27T05:32:24;8.90;99.90
17639;DHT22;8938;53.546;9.954;2024-01-27T05:34:50;8.90;99.90
17639;DHT22;8938;53.546;9.954;2024-01-27T05:37:15;8.80;99.90
17639;DHT22;8938;53.546;9.954;2024-01-27T05:39:41;8.80;99.90
17639;DHT22;8938;53.546;9.954;2024-01-27T05:42:06;8.80;99.90
17639;DHT22;8938;53.546;9.954;2024-01-27T05:44:32;8.80;99.90
17639;DHT22;8938;53.546;9.954;2024-01-27T05:46:58;8.80;99.90
17639;DHT22;8938;53.546;9.954;2024-01-27T05:49:23;8.70;99.90
17639;DHT22;8938;53.546;9.954;2024-01-27T05:51:49;8.70;99.90
17639;DHT22;8938;53.546;9.954;2024-01-27T05:54:15;8.70;99.90
17639;DHT22;8938;53.546;9.954;2024-01-27T05:56:42;8.80;99.90
17639;DHT22;8938;53.546;9.954;2024-01-27T05:59:08;8.70;99.90
17639;DHT22;8938;53.546;9.954;2024-01-27T06:01:33;8.70;99.90
17639;DHT22;8938;53.546;9.954;2024-01-27T06:03:59;8.70;99.90
17639;DHT22;8938;53.546;9.954;2024-01-27T06:06:24;8.70;99.90
17639;DHT22;8938;53.546;9.954;2024-01-27T06:08:50;8.70;99.90
17639;DHT22;8938;53.546;9.954;2024-01-27T06:11:23;8.70;99.90
17639;DHT22;8938;53.546;9.954;2024-01-27T06:13:49;8.70;99.90
17639;DHT22;8938;53.546;9.954;2024-01-27T06:16:15;8.70;99.90
17639;DHT22;8938;53.546;9.954;2024-01-27T06:18:43;8.70;99.90
17639;DHT22;8938;53.546;9.954;2024-01-27T06:21:10;8.60;99.90
17639;DHT22;8938;53.546;9.954;2024-01-27T06:23:36;8.60;99.90
17639;DHT22;8938;53.546;9.954;2024-01-27T06:26:06;8.60;99.90
17639;DHT22;8938;53.546;9.954;2024-01-27T06:28:31;8.60;99.90
17639;DHT22;8938;53.546;9.954;2024-01-27T06:30:57;8.50;99.90
17639;DHT22;8938;53.546;9.954;2024-01-27T06:33:23;8.50;99.90
17639;DHT22;8938;53.546;9.954;2024-01-27T06:35:49;8.50;99.90
17639;DHT22;8938;53.546;9.954;2024-01-27T06:38:14;8.40;99.90
17639;DHT22;8938;53.546;9.954;2024-01-27T06:40:39;8.40;99.90
17639;DHT22;8938;53.546;9.954;2024-01-27T06:43:05;8.40;99.90
17639;DHT22;8938;53.546;9.954;2024-01-27T06:45:31;8.30;99.90
17639;DHT22;8938;53.546;9.954;2024-01-27T06:47:56;8.20;99.90
17639;DHT22;8938;53.546;9.954;2024-01-27T06:50:22;8.10;99.90
17639;DHT22;8938;53.546;9.954;2024-01-27T06:52:48;8.10;99.90
17639;DHT22;8938;53.546;9.954;2024-01-27T06:55:13;8.10;99.90
17639;DHT22;8938;53.546;9.954;2024-01-27T06:57:39;8.20;99.90
17639;DHT22;8938;53.546;9.954;2024-01-27T07:00:06;8.20;99.90
17639;DHT22;8938;53.546;9.954;2024-01-27T07:02:32;8.20;99.90
17639;DHT22;8938;53.546;9.954;2024-01-27T07:04:58;8.50;99.90
17639;DHT22;8938;53.546;9.954;2024-01-27T07:07:28;8.30;99.90
17639;DHT22;8938;53.546;9.954;2024-01-27T07:09:57;8.30;99.90
17639;DHT22;8938;53.546;9.954;2024-01-27T07:12:23;8.40;99.90
17639;DHT22;8938;53.546;9.954;2024-01-27T07:14:49;8.20;99.90
17639;DHT22;8938;53.546;9.954;2024-01-27T07:17:15;8.20;99.90
17639;DHT22;8938;53.546;9.954;2024-01-27T07:19:40;8.10;99.90
17639;DHT22;8938;53.546;9.954;2024-01-27T07:22:06;8.00;99.90
17639;DHT22;8938;53.546;9.954;2024-01-27T07:24:32;8.00;99.90
17639;DHT22;8938;53.546;9.954;2024-01-27T07:26:59;8.00;99.90
17639;DHT22;8938;53.546;9.954;2024-01-27T07:29:26;8.00;99.90
17639;DHT22;8938;53.546;9.954;2024-01-27T07:31:51;8.00;99.90
17639;DHT22;8938;53.546;9.954;2024-01-27T07:34:17;8.00;99.90
17639;DHT22;8938;53.546;9.954;2024-01-27T07:36:43;7.90;99.90
17639;DHT22;8938;53.546;9.954;2024-01-27T07:39:09;7.90;99.90
17639;DHT22;8938;53.546;9.954;2024-01-27T07:41:34;7.90;99.90
17639;DHT22;8938;53.546;9.954;2024-01-27T07:44:11;8.00;99.90
17639;DHT22;8938;53.546;9.954;2024-01-27T07:46:41;8.00;99.90
17639;DHT22;8938;53.546;9.954;2024-01-27T07:49:07;8.00;99.90
17639;DHT22;8938;53.546;9.954;2024-01-27T07:51:33;7.90;99.90
17639;DHT22;8938;53.546;9.954;2024-01-27T07:53:59;7.80;99.90
17639;DHT22;8938;53.546;9.954;2024-01-27T07:56:25;7.80;99.90
17639;DHT22;8938;53.546;9.954;2024-01-27T07:58:51;7.90;99.90
17639;DHT22;8938;53.546;9.954;2024-01-27T08:01:17;7.90;99.90
17639;DHT22;8938;53.546;9.954;2024-01-27T08:03:43;8.00;99.90
17639;DHT22;8938;53.546;9.954;2024-01-27T08:06:17;7.90;99.90
17639;DHT22;8938;53.546;9.954;2024-01-27T08:08:46;8.00;99.90
17639;DHT22;8938;53.546;9.954;2024-01-27T08:11:13;8.00;99.90
17639;DHT22;8938;53.546;9.954;2024-01-27T08:13:38;7.90;99.90
17639;DHT22;8938;53.546;9.954;2024-01-27T08:16:04;7.90;99.90
17639;DHT22;8938;53.546;9.954;2024-01-27T08:18:31;7.90;99.90
17639;DHT22;8938;53.546;9.954;2024-01-27T08:20:56;7.80;99.90
17639;DHT22;8938;53.546;9.954;2024-01-27T08:23:25;7.80;99.90
17639;DHT22;8938;53.546;9.954;2024-01-27T08:25:50;7.80;99.90
17639;DHT22;8938;53.546;9.954;2024-01-27T08:28:18;7.80;99.90
17639;DHT22;8938;53.546;9.954;2024-01-27T08:30:43;7.90;99.90
17639;DHT22;8938;53.546;9.954;2024-01-27T08:33:09;7.90;99.90
17639;DHT22;8938;53.546;9.954;2024-01-27T08:35:35;7.90;99.90
17639;DHT22;8938;53.546;9.954;2024-01-27T08:38:01;7.90;99.90
17639;DHT22;8938;53.546;9.954;2024-01-27T08:40:27;7.90;99.90
17639;DHT22;8938;53.546;9.954;2024-01-27T08:42:53;8.00;99.90
17639;DHT22;8938;53.546;9.954;2024-01-27T08:45:18;8.00;99.90
17639;DHT22;8938;53.546;9.954;2024-01-27T08:47:44;8.00;99.90
17639;DHT22;8938;53.546;9.954;2024-01-27T08:50:09;8.00;99.90
17639;DHT22;8938;53.546;9.954;2024-01-27T08:52:36;8.00;99.90
17639;DHT22;8938;53.546;9.954;2024-01-27T08:55:01;8.00;99.90
17639;DHT22;8938;53.546;9.954;2024-01-27T08:57:27;8.00;99.90
17639;DHT22;8938;53.546;9.954;2024-01-27T08:59:53;8.00;99.90
17639;DHT22;8938;53.546;9.954;2024-01-27T09:02:18;8.00;99.90
17639;DHT22;8938;53.546;9.954;2024-01-27T09:04:44;8.10;99.90
17639;DHT22;8938;53.546;9.954;2024-01-27T09:07:09;8.20;99.90
17639;DHT22;8938;53.546;9.954;2024-01-27T09:09:35;8.30;99.90
17639;DHT22;8938;53.546;9.954;2024-01-27T09:12:00;8.30;99.90
17639;DHT22;8938;53.546;9.954;2024-01-27T09:14:26;8.40;99.90
17639;DHT22;8938;53.546;9.954;2024-01-27T09:16:51;8.30;99.90
17639;DHT22;8938;53.546;9.954;2024-01-27T09:19:17;8.30;99.90
17639;DHT22;8938;53.546;9.954;2024-01-27T09:21:43;8.40;99.90
17639;DHT22;8938;53.546;9.954;2024-01-27T09:24:09;8.40;99.90
17639;DHT22;8938;53.546;9.954;2024-01-27T09:26:34;8.40;99.90
17639;DHT22;8938;53.546;9.954;2024-01-27T09:29:00;8.50;99.90
17639;DHT22;8938;53.546;9.954;2024-01-27T09:31:25;8.70;99.90
17639;DHT22;8938;53.546;9.954;2024-01-27T09:33:53;9.00;99.90
17639;DHT22;8938;53.546;9.954;2024-01-27T09:36:19;9.20;99.90
17639;DHT22;8938;53.546;9.954;2024-01-27T09:38:47;9.40;99.90
17639;DHT22;8938;53.546;9.954;2024-01-27T09:41:14;9.50;99.90
17639;DHT22;8938;53.546;9.954;2024-01-27T09:43:42;9.80;99.90
17639;DHT22;8938;53.546;9.954;2024-01-27T09:46:10;10.20;99.90
17639;DHT22;8938;53.546;9.954;2024-01-27T09:48:36;10.30;99.90
17639;DHT22;8938;53.546;9.954;2024-01-27T09:51:03;10.20;99.90
17639;DHT22;8938;53.546;9.954;2024-01-27T09:53:29;10.10;99.90
17639;DHT22;8938;53.546;9.954;2024-01-27T09:55:57;9.90;99.90
17639;DHT22;8938;53.546;9.954;2024-01-27T09:58:27;9.90;99.90
17639;DHT22;8938;53.546;9.954;2024-01-27T10:00:59;9.80;99.90
17639;DHT22;8938;53.546;9.954;2024-01-27T10:03:25;9.60;99.90
17639;DHT22;8938;53.546;9.954;2024-01-27T10:05:53;9.90;99.90
17639;DHT22;8938;53.546;9.954;2024-01-27T10:08:23;9.80;99.90
17639;DHT22;8938;53.546;9.954;2024-01-27T10:10:54;9.70;99.90
17639;DHT22;8938;53.546;9.954;2024-01-27T10:13:21;9.70;99.90
17639;DHT22;8938;53.546;9.954;2024-01-27T10:16:07;9.60;99.90
17639;DHT22;8938;53.546;9.954;2024-01-27T10:18:34;9.60;99.90
17639;DHT22;8938;53.546;9.954;2024-01-27T10:21:00;9.50;99.90
17639;DHT22;8938;53.546;9.954;2024-01-27T10:23:26;9.50;99.90
17639;DHT22;8938;53.546;9.954;2024-01-27T10:25:52;9.60;99.90
17639;DHT22;8938;53.546;9.954;2024-01-27T10:28:18;9.70;99.90
17639;DHT22;8938;53.546;9.954;2024-01-27T10:30:44;9.80;99.90
17639;DHT22;8938;53.546;9.954;2024-01-27T10:33:11;9.90;99.90
17639;DHT22;8938;53.546;9.954;2024-01-27T10:35:40;10.20;99.90
17639;DHT22;8938;53.546;9.954;2024-01-27T10:38:06;10.10;99.90
17639;DHT22;8938;53.546;9.954;2024-01-27T10:40:32;10.10;99.90
17639;DHT22;8938;53.546;9.954;2024-01-27T10:43:05;10.20;99.90
17639;DHT22;8938;53.546;9.954;2024-01-27T10:45:36;10.20;99.90
17639;DHT22;8938;53.546;9.954;2024-01-27T10:48:03;10.30;99.90
17639;DHT22;8938;53.546;9.954;2024-01-27T10:50:30;10.40;99.90
17639;DHT22;8938;53.546;9.954;2024-01-27T10:52:58;10.40;99.90
17639;DHT22;8938;53.546;9.954;2024-01-27T10:55:24;10.70;99.90
17639;DHT22;8938;53.546;9.954;2024-01-27T10:57:52;10.30;99.90
17639;DHT22;8938;53.546;9.954;2024-01-27T11:00:19;10.40;99.90
17639;DHT22;8938;53.546;9.954;2024-01-27T11:02:45;10.30;99.90
17639;DHT22;8938;53.546;9.954;2024-01-27T11:05:12;10.30;99.90
17639;DHT22;8938;53.546;9.954;2024-01-27T11:07:39;10.40;99.90
17639;DHT22;8938;53.546;9.954;2024-01-27T11:10:06;10.50;99.90
17639;DHT22;8938;53.546;9.954;2024-01-27T11:12:33;10.50;99.90
17639;DHT22;8938;53.546;9.954;2024-01-27T11:14:59;10.50;99.90
17639;DHT22;8938;53.546;9.954;2024-01-27T11:17:24;10.60;99.90
17639;DHT22;8938;53.546;9.954;2024-01-27T11:19:50;10.60;99.90
17639;DHT22;8938;53.546;9.954;2024-01-27T11:22:24;10.50;99.90
17639;DHT22;8938;53.546;9.954;2024-01-27T11:24:52;10.50;99.90
17639;DHT22;8938;53.546;9.954;2024-01-27T11:27:17;10.60;99.90
17639;DHT22;8938;53.546;9.954;2024-01-27T11:29:47;10.60;99.90
17639;DHT22;8938;53.546;9.954;2024-01-27T11:32:13;10.60;99.90
17639;DHT22;8938;53.546;9.954;2024-01-27T11:34:42;10.80;99.90
17639;DHT22;8938;53.546;9.954;2024-01-27T11:37:15;11.50;99.90
17639;DHT22;8938;53.546;9.954;2024-01-27T11:39:41;10.80;99.90
17639;DHT22;8938;53.546;9.954;2024-01-27T11:42:10;10.90;99.90
17639;DHT22;8938;53.546;9.954;2024-01-27T11:44:40;11.00;99.90
17639;DHT22;8938;53.546;9.954;2024-01-27T11:47:14;11.00;99.90
17639;DHT22;8938;53.546;9.954;2024-01-27T11:49:40;11.00;99.90
17639;DHT22;8938;53.546;9.954;2024-01-27T11:52:06;11.10;99.90
17639;DHT22;8938;53.546;9.954;2024-01-27T11:54:32;11.00;99.90
17639;DHT22;8938;53.546;9.954;2024-01-27T11:56:58;11.00;99.90
17639;DHT22;8938;53.546;9.954;2024-01-27T11:59:23;11.10;99.90
17639;DHT22;8938;53.546;9.954;2024-01-27T12:01:49;11.10;99.90
17639;DHT22;8938;53.546;9.954;2024-01-27T12:04:15;11.40;99.90
17639;DHT22;8938;53.546;9.954;2024-01-27T12:06:42;11.20;99.90
17639;DHT22;8938;53.546;9.954;2024-01-27T12:09:09;11.20;99.90
17639;DHT22;8938;53.546;9.954;2024-01-27T12:11:38;11.40;99.90
17639;DHT22;8938;53.546;9.954;2024-01-27T12:14:05;11.40;99.90
17639;DHT22;8938;53.546;9.954;2024-01-27T12:16:31;11.50;99.90
17639;DHT22;8938;53.546;9.954;2024-01-27T12:18:57;11.50;99.90
17639;DHT22;8938;53.546;9.954;2024-01-27T12:21:22;11.50;99.90
17639;DHT22;8938;53.546;9.954;2024-01-27T12:23:53;11.60;99.90
17639;DHT22;8938;53.546;9.954;2024-01-27T12:26:20;11.50;99.90
17639;DHT22;8938;53.546;9.954;2024-01-27T12:28:47;11.60;99.90
17639;DHT22;8938;53.546;9.954;2024-01-27T12:31:14;11.70;99.90
17639;DHT22;8938;53.546;9.954;2024-01-27T12:33:40;11.70;99.90
17639;DHT22;8938;53.546;9.954;2024-01-27T12:36:07;11.70;99.90
17639;DHT22;8938;53.546;9.954;2024-01-27T12:38:33;11.70;99.90
17639;DHT22;8938;53.546;9.954;2024-01-27T12:40:58;11.80;99.90
17639;DHT22;8938;53.546;9.954;2024-01-27T12:43:24;11.90;99.90
17639;DHT22;8938;53.546;9.954;2024-01-27T12:45:50;12.00;99.90
17639;DHT22;8938;53.546;9.954;2024-01-27T12:48:15;12.00;99.90
17639;DHT22;8938;53.546;9.954;2024-01-27T12:50:41;12.00;99.90
17639;DHT22;8938;53.546;9.954;2024-01-27T12:53:06;12.00;99.90
17639;DHT22;8938;53.546;9.954;2024-01-27T12:55:32;12.00;99.90
17639;DHT22;8938;53.546;9.954;2024-01-27T12:57:57;12.00;99.90
17639;DHT22;8938;53.546;9.954;2024-01-27T13:00:23;12.00;99.90
17639;DHT22;8938;53.546;9.954;2024-01-27T13:02:49;12.00;99.90
17639;DHT22;8938;53.546;9.954;2024-01-27T13:05:15;11.70;99.90
17639;DHT22;8938;53.546;9.954;2024-01-27T13:07:40;12.00;99.90
17639;DHT22;8938;53.546;9.954;2024-01-27T13:10:06;12.00;99.90
17639;DHT22;8938;53.546;9.954;2024-01-27T13:12:32;12.00;99.90
17639;DHT22;8938;53.546;9.954;2024-01-27T13:14:57;11.90;99.90
17639;DHT22;8938;53.546;9.954;2024-01-27T13:17:23;12.00;99.90
17639;DHT22;8938;53.546;9.954;2024-01-27T13:19:48;12.00;99.90
17639;DHT22;8938;53.546;9.954;2024-01-27T13:22:14;12.10;99.90
17639;DHT22;8938;53.546;9.954;2024-01-27T13:24:39;12.30;99.90
17639;DHT22;8938;53.546;9.954;2024-01-27T13:27:05;12.30;99.90
17639;DHT22;8938;53.546;9.954;2024-01-27T13:29:33;12.50;99.90
17639;DHT22;8938;53.546;9.954;2024-01-27T13:31:59;13.10;99.90
17639;DHT22;8938;53.546;9.954;2024-01-27T13:34:27;12.70;99.90
17639;DHT22;8938;53.546;9.954;2024-01-27T13:36:54;12.60;99.90
17639;DHT22;8938;53.546;9.954;2024-01-27T13:39:19;12.80;99.90
17639;DHT22;8938;53.546;9.954;2024-01-27T13:41:45;12.70;99.90
17639;DHT22;8938;53.546;9.954;2024-01-27T13:44:10;12.80;99.90
17639;DHT22;8938;53.546;9.954;2024-01-27T14:01:12;12.30;99.90
17639;DHT22;8938;53.546;9.954;2024-01-27T14:03:37;12.10;99.90
17639;DHT22;8938;53.546;9.954;2024-01-27T14:06:04;12.10;99.90
17639;DHT22;8938;53.546;9.954;2024-01-27T14:08:30;12.20;99.90
17639;DHT22;8938;53.546;9.954;2024-01-27T14:10:55;12.10;99.90
17639;DHT22;8938;53.546;9.954;2024-01-27T14:13:21;12.10;99.90
17639;DHT22;8938;53.546;9.954;2024-01-27T14:15:47;12.10;99.90
17639;DHT22;8938;53.546;9.954;2024-01-27T14:18:13;12.00;99.90
17639;DHT22;8938;53.546;9.954;2024-01-27T14:20:46;11.90;99.90
17639;DHT22;8938;53.546;9.954;2024-01-27T14:23:13;11.80;99.90
17639;DHT22;8938;53.546;9.954;2024-01-27T14:25:39;11.90;99.90
17639;DHT22;8938;53.546;9.954;2024-01-27T14:28:04;11.90;99.90
17639;DHT22;8938;53.546;9.954;2024-01-27T14:30:33;11.90;99.90
17639;DHT22;8938;53.546;9.954;2024-01-27T14:32:58;11.90;99.90
17639;DHT22;8938;53.546;9.954;2024-01-27T14:35:24;11.80;99.90
17639;DHT22;8938;53.546;9.954;2024-01-27T14:37:51;11.70;99.90
17639;DHT22;8938;53.546;9.954;2024-01-27T14:40:17;11.60;99.90
17639;DHT22;8938;53.546;9.954;2024-01-27T14:42:46;11.60;99.90
17639;DHT22;8938;53.546;9.954;2024-01-27T14:45:12;11.60;99.90
17639;DHT22;8938;53.546;9.954;2024-01-27T14:47:37;11.60;99.90
17639;DHT22;8938;53.546;9.954;2024-01-27T14:50:04;11.50;99.90
17639;DHT22;8938;53.546;9.954;2024-01-27T14:52:31;11.60;99.90
17639;DHT22;8938;53.546;9.954;2024-01-27T14:54:57;11.60;99.90
17639;DHT22;8938;53.546;9.954;2024-01-27T14:57:23;11.60;99.90
17639;DHT22;8938;53.546;9.954;2024-01-27T14:59:49;11.80;99.90
17639;DHT22;8938;53.546;9.954;2024-01-27T15:02:15;11.80;99.90
17639;DHT22;8938;53.546;9.954;2024-01-27T15:04:40;12.00;99.90
17639;DHT22;8938;53.546;9.954;2024-01-27T15:07:07;11.70;99.90
17639;DHT22;8938;53.546;9.954;2024-01-27T15:09:33;11.60;99.90
17639;DHT22;8938;53.546;9.954;2024-01-27T15:11:58;11.40;99.90
17639;DHT22;8938;53.546;9.954;2024-01-27T15:14:24;11.40;99.90
17639;DHT22;8938;53.546;9.954;2024-01-27T15:16:49;11.40;99.90
17639;DHT22;8938;53.546;9.954;2024-01-27T15:19:15;11.40;99.90
17639;DHT22;8938;53.546;9.954;2024-01-27T15:21:41;11.40;99.90
17639;DHT22;8938;53.546;9.954;2024-01-27T15:24:06;11.30;99.90
17639;DHT22;8938;53.546;9.954;2024-01-27T15:26:32;11.30;99.90
17639;DHT22;8938;53.546;9.954;2024-01-27T15:28:58;11.30;99.90
17639;DHT22;8938;53.546;9.954;2024-01-27T15:31:23;11.30;99.90
17639;DHT22;8938;53.546;9.954;2024-01-27T15:33:50;11.30;99.90
17639;DHT22;8938;53.546;9.954;2024-01-27T15:36:16;11.30;99.90
17639;DHT22;8938;53.546;9.954;2024-01-27T15:38:42;11.30;99.90
17639;DHT22;8938;53.546;9.954;2024-01-27T15:41:07;11.40;99.90
17639;DHT22;8938;53.546;9.954;2024-01-27T15:43:34;11.30;99.90
17639;DHT22;8938;53.546;9.954;2024-01-27T15:46:00;11.30;99.90
17639;DHT22;8938;53.546;9.954;2024-01-27T15:48:34;11.30;99.90
17639;DHT22;8938;53.546;9.954;2024-01-27T15:51:00;11.20;99.90
17639;DHT22;8938;53.546;9.954;2024-01-27T15:53:26;11.20;99.90
17639;DHT22;8938;53.546;9.954;2024-01-27T15:55:51;11.10;99.90
17639;DHT22;8938;53.546;9.954;2024-01-27T15:58:17;11.10;99.90
17639;DHT22;8938;53.546;9.954;2024-01-27T16:00:42;11.10;99.90
17639;DHT22;8938;53.546;9.954;2024-01-27T16:03:08;11.10;99.90